Главная страница
METAR-TAF:

METAR-TAF

Аэропорты :

Нуакшот, Мавритания

широта: 18-18-36N, долгота: 015-58-11W, высота над уровнем моря: 3 м

Текущие метеонаблюдения

Эта сводка был подготовлена 19 минут назад, в 01:30 UTC
Ветер 5 Узел от западный
Температура 23°C
Влажность 83%
Давление 1011 hPa
Видимость: 8000 м

METAR: GQNO 220130Z 26005KT 8000 NSC 23/20 Q1011 NOSIG

Время: 01:49 (01:49 UTC)

Прогноз

Эта сводка был подготовлена 2 часа и 49 минут назад, в 23:00 UTC
Прогноз действительный с 22-го 00 UTC до 23-го 06 UTC
Ветер 10 Узел от северно-северо-западный
Видимость: 7000 м
изменения
С 22-го 08 UTC до 22-го 10 UTC
Ветер 10 Узел от северо-восточный
изменения
С 22-го 14 UTC до 22-го 17 UTC
Ветер 14 Узел от северно-северо-западный

TAF: GQNO 212300Z 2200/2306 33010KT 7000 NSC BECMG 2208/2210 04010KT BECMG 2214/2217 34014KT

Метеонаблюдения и прогнозы для более 4000 аэропортов (сводки METAR и TAF).

Имеющиеся станции представлены на карте желтыми и красными точками.

Чтобы увидеть название станции, наведите на нее мышь.

Затем щелкните, чтобы увидеть метеонаблюдения и метеопрогнозы.

Управление картой: чтобы увеличить масштаб, щелкните зеленые кнопки с черным крестиком; чтобы уменьшить масштаб, щелкните зеленую кнопку с тире; для просмотра соседних карт щелкайте зеленые стрелки.


METAR-TAF: